Dario Filipe — CUHY7 — position and weather

sailwx.info

Track history (hours):
 
Tides and Currents Weather Stations Pressure Air Temp Water Temp Dewpoint Dewpoint Depression Visibility Wind Speed Wind Dir Waves Ship Positions

Dario Filipe

Last reported at 2015-Mar-29 21:17 UTC. Time now 2015-Apr-02 06:32 UTC.
Position N 38°51' W 010°14'.

Length 24 m.

Type: Fishing. MMSI: 263414640.

Date/timePositionNaut miles runAvg speedWind from/ knotsBaromVisibWave heightAir tempDewpointWater temp
2015-Mar-29 21:17N 38°51' W 010°14'5 6.6
2015-Mar-29 20:31N 38°47' W 010°13'1 0.6
2015-Mar-29 18:31N 38°45' W 010°13'4 0.2
2015-Mar-28 19:25N 38°46' W 010°17'5 1.4
2015-Mar-28 16:04N 38°41' W 010°18'5 5.1
2015-Mar-28 15:10N 38°46' W 010°17'6 7.1
2015-Mar-28 14:22N 38°49' W 010°11'5 4.1
2015-Mar-28 13:05N 38°51' W 010°17'6 0.5
2015-Mar-28 01:28N 38°47' W 010°12'  
Track history (hours):
 
Tides and Currents Weather Stations Pressure Air Temp Water Temp Dewpoint Dewpoint Depression Visibility Wind Speed Wind Dir Waves Ship Positions

Dario Filipe

Last reported at 2015-Mar-29 21:17 UTC. Time now 2015-Apr-02 06:32 UTC.
Position N 38°51' W 010°14'.

Length 24 m.

Type: Fishing. MMSI: 263414640.

Date/timePositionNaut miles runAvg speedWind from/ knotsBaromVisibWave heightAir tempDewpointWater temp
2015-Mar-29 21:17N 38°51' W 010°14'5 6.6
2015-Mar-29 20:31N 38°47' W 010°13'1 0.6
2015-Mar-29 18:31N 38°45' W 010°13'4 0.2
2015-Mar-28 19:25N 38°46' W 010°17'5 1.4
2015-Mar-28 16:04N 38°41' W 010°18'5 5.1
2015-Mar-28 15:10N 38°46' W 010°17'6 7.1
2015-Mar-28 14:22N 38°49' W 010°11'5 4.1
2015-Mar-28 13:05N 38°51' W 010°17'6 0.5
2015-Mar-28 01:28N 38°47' W 010°12'  

Dump ship's entire track history